createdAt,value
2022-12-15T00:02:10.062Z,-4.88
2022-12-15T00:04:54.785Z,-4.87
2022-12-15T00:07:39.687Z,-4.85
2022-12-15T00:10:24.953Z,-4.84
2022-12-15T00:13:10.003Z,-4.84
2022-12-15T00:15:54.837Z,-4.82
2022-12-15T00:18:39.783Z,-4.84
2022-12-15T00:21:25.303Z,-4.85
2022-12-15T00:24:10.009Z,-4.86
2022-12-15T00:26:54.919Z,-4.85
2022-12-15T00:29:39.798Z,-4.87
2022-12-15T00:32:24.967Z,-4.88
2022-12-15T00:35:10.021Z,-4.89
2022-12-15T00:37:54.819Z,-4.91
2022-12-15T00:40:21.150Z,-4.93
2022-12-15T00:42:49.544Z,-4.95
2022-12-15T00:45:16.311Z,-4.96
2022-12-15T00:47:42.682Z,-4.97
2022-12-15T00:50:27.958Z,-4.99
2022-12-15T00:53:12.751Z,-5.01
2022-12-15T00:55:57.511Z,-5.00
2022-12-15T00:58:42.319Z,-4.98
2022-12-15T01:01:28.667Z,-5.01
2022-12-15T01:04:14.066Z,-5.03
2022-12-15T01:06:59.143Z,-5.03
2022-12-15T01:09:44.105Z,-5.04
2022-12-15T01:12:29.008Z,-5.06
2022-12-15T01:15:13.811Z,-5.08
2022-12-15T01:17:58.711Z,-5.08
2022-12-15T01:20:25.072Z,-5.11
2022-12-15T01:22:54.138Z,-5.12
2022-12-15T01:25:22.978Z,-5.11
2022-12-15T01:27:49.921Z,-5.10
2022-12-15T01:30:23.740Z,-5.09
2022-12-15T01:32:50.684Z,-5.10
2022-12-15T01:35:17.707Z,-5.12
2022-12-15T01:37:44.491Z,-5.10
2022-12-15T01:40:34.820Z,-5.09
2022-12-15T01:43:01.672Z,-5.09
2022-12-15T01:45:30.799Z,-5.10
2022-12-15T01:48:02.835Z,-5.10
2022-12-15T01:50:31.545Z,-5.09
2022-12-15T01:52:57.899Z,-5.09
2022-12-15T01:55:27.782Z,-5.11
2022-12-15T01:57:59.547Z,-5.13
2022-12-15T02:00:26.669Z,-5.16
2022-12-15T02:02:54.122Z,-5.18
2022-12-15T02:05:21.849Z,-5.19
2022-12-15T02:07:48.204Z,-5.21
2022-12-15T02:10:16.499Z,-5.21
2022-12-15T02:13:15.622Z,-5.18
2022-12-15T02:15:56.036Z,-5.18
2022-12-15T02:18:32.314Z,-5.17
2022-12-15T02:21:07.286Z,-5.18
2022-12-15T02:23:52.976Z,-5.19
2022-12-15T02:26:25.407Z,-5.15
2022-12-15T02:29:17.906Z,-5.15
2022-12-15T02:31:52.370Z,-5.17
2022-12-15T02:34:43.108Z,-5.18
2022-12-15T02:37:26.203Z,-5.17
2022-12-15T02:39:52.571Z,-5.19
2022-12-15T02:42:19.295Z,-5.21
2022-12-15T02:44:57.399Z,-5.21
2022-12-15T02:47:46.185Z,-5.21
2022-12-15T02:50:18.617Z,-5.23
2022-12-15T02:53:15.174Z,-5.24
2022-12-15T02:55:57.817Z,-5.28
2022-12-15T02:58:35.134Z,-5.30
2022-12-15T03:01:16.652Z,-5.32
2022-12-15T03:03:43.856Z,-5.28
2022-12-15T03:06:10.410Z,-5.30
2022-12-15T03:08:36.772Z,-5.32
2022-12-15T03:11:03.330Z,-5.32
2022-12-15T03:13:30.138Z,-5.35
2022-12-15T03:15:58.158Z,-5.31
2022-12-15T03:18:24.519Z,-5.31
2022-12-15T03:20:50.912Z,-5.32
2022-12-15T03:23:17.287Z,-5.33
2022-12-15T03:25:46.726Z,-5.36
2022-12-15T03:28:16.613Z,-5.38
2022-12-15T03:30:43.109Z,-5.37
2022-12-15T03:33:11.113Z,-5.41
2022-12-15T03:35:37.447Z,-5.41
2022-12-15T03:38:03.966Z,-5.40
2022-12-15T03:40:30.359Z,-5.40
2022-12-15T03:42:56.907Z,-5.38
2022-12-15T03:45:25.731Z,-5.36
2022-12-15T03:47:53.266Z,-5.40
2022-12-15T03:50:22.122Z,-5.37
2022-12-15T03:52:57.624Z,-5.38
2022-12-15T03:55:24.487Z,-5.38
2022-12-15T03:57:51.237Z,-5.35
2022-12-15T04:00:19.502Z,-5.36
2022-12-15T04:02:47.206Z,-5.35
2022-12-15T04:05:23.128Z,-5.36
2022-12-15T04:07:49.488Z,-5.39
2022-12-15T04:10:16.112Z,-5.38
2022-12-15T04:12:42.546Z,-5.38
2022-12-15T04:15:10.613Z,-5.37
2022-12-15T04:17:37.825Z,-5.37
2022-12-15T04:20:11.701Z,-5.38
2022-12-15T04:22:43.064Z,-5.39
2022-12-15T04:25:31.616Z,-5.35
2022-12-15T04:28:16.343Z,-5.34
2022-12-15T04:31:06.800Z,-5.32
2022-12-15T04:33:52.656Z,-5.32
2022-12-15T04:36:37.422Z,-5.28
2022-12-15T04:39:23.621Z,-5.27
2022-12-15T04:42:09.984Z,-5.29
2022-12-15T04:44:55.297Z,-5.32
2022-12-15T04:47:40.123Z,-5.32
2022-12-15T04:50:25.214Z,-5.31
2022-12-15T04:53:09.984Z,-5.31
2022-12-15T04:55:56.089Z,-5.31
2022-12-15T04:58:41.318Z,-5.30
2022-12-15T05:01:26.100Z,-5.29
2022-12-15T05:04:10.933Z,-5.24
2022-12-15T05:06:55.729Z,-5.22
2022-12-15T05:09:40.651Z,-5.22
2022-12-15T05:12:25.370Z,-5.19
2022-12-15T05:15:10.463Z,-5.18
2022-12-15T05:17:55.162Z,-5.19
2022-12-15T05:20:40.114Z,-5.19
2022-12-15T05:23:24.762Z,-5.19
2022-12-15T05:26:09.607Z,-5.20
2022-12-15T05:28:54.363Z,-5.22
2022-12-15T05:31:39.149Z,-5.25
2022-12-15T05:34:05.990Z,-5.25
2022-12-15T05:36:32.887Z,-5.27
2022-12-15T05:38:59.240Z,-5.27
2022-12-15T05:41:25.605Z,-5.28
2022-12-15T05:43:52.048Z,-5.29
2022-12-15T05:46:18.487Z,-5.29
2022-12-15T05:48:45.209Z,-5.31
2022-12-15T05:51:12.332Z,-5.32
2022-12-15T05:53:40.421Z,-5.34
2022-12-15T05:56:14.547Z,-5.34
2022-12-15T05:58:45.524Z,-5.35
2022-12-15T06:01:15.182Z,-5.37
2022-12-15T06:03:42.304Z,-5.40
2022-12-15T06:06:10.244Z,-5.36
2022-12-15T06:08:39.388Z,-5.35
2022-12-15T06:11:06.450Z,-5.34
2022-12-15T06:13:36.999Z,-5.34
2022-12-15T06:16:06.865Z,-5.35
2022-12-15T06:18:40.062Z,-5.34
2022-12-15T06:21:12.649Z,-5.35
2022-12-15T06:23:39.745Z,-5.39
2022-12-15T06:26:17.932Z,-5.39
2022-12-15T06:28:44.655Z,-5.36
2022-12-15T06:31:12.093Z,-5.30
2022-12-15T06:33:39.250Z,-5.27
2022-12-15T06:36:08.350Z,-5.24
2022-12-15T06:38:36.101Z,-5.22
2022-12-15T06:41:04.458Z,-5.21
2022-12-15T06:43:33.001Z,-5.21
2022-12-15T06:46:01.899Z,-5.21
2022-12-15T06:48:28.708Z,-5.21
2022-12-15T06:50:55.259Z,-5.21
2022-12-15T06:53:24.000Z,-5.22
2022-12-15T06:55:50.615Z,-5.23
2022-12-15T06:58:18.149Z,-5.24
2022-12-15T07:00:46.307Z,-5.21
2022-12-15T07:03:15.581Z,-5.21
2022-12-15T07:05:43.708Z,-5.22
2022-12-15T07:08:15.849Z,-5.21
2022-12-15T07:10:44.134Z,-5.23
2022-12-15T07:13:11.577Z,-5.21
2022-12-15T07:15:38.334Z,-5.23
2022-12-15T07:18:05.569Z,-5.26
2022-12-15T07:20:32.289Z,-5.28
2022-12-15T07:22:58.700Z,-5.30
2022-12-15T07:25:25.131Z,-5.28
2022-12-15T07:27:51.534Z,-5.26
2022-12-15T07:30:18.124Z,-5.25
2022-12-15T07:32:50.105Z,-5.23
2022-12-15T07:35:16.921Z,-5.22
2022-12-15T07:37:43.492Z,-5.19
2022-12-15T07:40:10.312Z,-5.17
2022-12-15T07:42:36.959Z,-5.15
2022-12-15T07:45:05.227Z,-5.13
2022-12-15T07:47:32.146Z,-5.13
2022-12-15T07:49:58.564Z,-5.13
2022-12-15T07:52:25.010Z,-5.12
2022-12-15T07:54:51.623Z,-5.11
2022-12-15T07:57:18.677Z,-5.07
2022-12-15T07:59:45.395Z,-5.07
2022-12-15T08:02:13.142Z,-5.05
2022-12-15T08:04:40.290Z,-5.04
2022-12-15T08:07:07.660Z,-5.06
2022-12-15T08:09:34.113Z,-5.08
2022-12-15T08:12:00.698Z,-5.05
2022-12-15T08:14:28.713Z,-4.99
2022-12-15T08:16:55.604Z,-4.97
2022-12-15T08:19:22.004Z,-4.93
2022-12-15T08:21:48.594Z,-4.89
2022-12-15T08:24:15.711Z,-4.84
2022-12-15T08:26:43.346Z,-4.81
2022-12-15T08:32:01.758Z,-4.71
2022-12-15T08:34:28.390Z,-4.66
2022-12-15T08:36:55.741Z,-4.61
2022-12-15T08:39:22.235Z,-4.58
2022-12-15T08:41:49.924Z,-4.53
2022-12-15T08:44:16.979Z,-4.49
2022-12-15T08:46:43.440Z,-4.41
2022-12-15T08:49:10.264Z,-4.34
2022-12-15T08:51:36.816Z,-4.31
2022-12-15T08:54:03.330Z,-4.24
2022-12-15T08:56:30.055Z,-4.20
2022-12-15T08:58:58.926Z,-4.12
2022-12-15T09:01:27.041Z,-4.07
2022-12-15T09:03:55.151Z,-4.01
2022-12-15T09:06:25.305Z,-3.93
2022-12-15T09:08:57.290Z,-3.87
2022-12-15T09:11:25.125Z,-3.82
2022-12-15T09:13:51.567Z,-3.77
2022-12-15T09:16:18.968Z,-3.74
2022-12-15T09:18:48.223Z,-3.71
2022-12-15T09:21:15.408Z,-3.66
2022-12-15T09:23:42.690Z,-3.61
2022-12-15T09:26:11.942Z,-3.57
2022-12-15T09:28:38.736Z,-3.50
2022-12-15T09:31:16.850Z,-3.44
2022-12-15T09:33:44.138Z,-3.39
2022-12-15T09:36:13.169Z,-3.33
2022-12-15T09:38:41.123Z,-3.28
2022-12-15T09:41:31.881Z,-3.22
2022-12-15T09:44:07.261Z,-3.16
2022-12-15T09:46:57.322Z,-3.08
2022-12-15T09:49:29.772Z,-3.07
2022-12-15T09:52:08.831Z,-3.04
2022-12-15T09:54:37.647Z,-2.97
2022-12-15T09:57:31.534Z,-2.92
2022-12-15T10:00:05.007Z,-2.86
2022-12-15T10:03:00.238Z,-2.79
2022-12-15T10:06:25.998Z,-2.72
2022-12-15T10:09:00.196Z,-2.65
2022-12-15T10:11:40.300Z,-2.62
2022-12-15T10:14:27.090Z,-2.58
2022-12-15T10:17:06.757Z,-2.54
2022-12-15T10:19:50.091Z,-2.50
2022-12-15T10:22:23.627Z,-2.45
2022-12-15T10:27:56.036Z,-2.39
2022-12-15T10:30:22.776Z,-2.35
2022-12-15T10:33:11.444Z,-2.31
2022-12-15T10:35:39.639Z,-2.22
2022-12-15T10:38:16.941Z,-2.14
2022-12-15T10:40:50.256Z,-2.03
2022-12-15T10:43:26.401Z,-1.93
2022-12-15T10:46:18.663Z,-1.81
2022-12-15T10:48:48.582Z,-1.73
2022-12-15T10:51:31.669Z,-1.65
2022-12-15T10:54:10.286Z,-1.50
2022-12-15T10:56:50.260Z,-1.27
2022-12-15T10:59:28.851Z,-1.00
2022-12-15T11:01:55.527Z,-0.89
2022-12-15T11:04:29.159Z,-0.86
2022-12-15T11:07:01.883Z,-0.83
2022-12-15T11:09:39.232Z,-0.67
2022-12-15T11:12:39.134Z,-0.51
2022-12-15T11:15:23.556Z,-0.33
2022-12-15T11:18:02.706Z,0.05
2022-12-15T11:20:35.545Z,0.54
2022-12-15T11:23:11.326Z,0.94
2022-12-15T11:25:44.998Z,1.14
2022-12-15T11:28:18.213Z,1.43
2022-12-15T11:31:02.396Z,1.19
2022-12-15T11:33:29.240Z,0.88
2022-12-15T11:36:20.721Z,0.67
2022-12-15T11:38:52.730Z,0.56
2022-12-15T11:41:53.188Z,0.69
2022-12-15T11:44:23.431Z,0.59
2022-12-15T11:47:03.652Z,0.73
2022-12-15T11:50:14.002Z,1.04
2022-12-15T11:52:54.897Z,1.06
2022-12-15T11:55:33.306Z,1.74
2022-12-15T11:58:13.845Z,1.44
2022-12-15T12:00:50.599Z,1.02
2022-12-15T12:03:25.691Z,0.78
2022-12-15T12:06:07.948Z,0.61
2022-12-15T12:08:46.012Z,0.49
2022-12-15T12:11:22.516Z,0.38
2022-12-15T12:14:11.442Z,0.31
2022-12-15T12:17:02.372Z,0.26
2022-12-15T12:19:37.787Z,0.23
2022-12-15T12:22:13.578Z,0.23
2022-12-15T12:24:48.862Z,0.20
2022-12-15T12:27:28.957Z,0.19
2022-12-15T12:30:03.631Z,0.17
2022-12-15T12:32:50.531Z,0.17
2022-12-15T12:38:23.120Z,0.14
2022-12-15T12:41:05.409Z,0.11
2022-12-15T12:43:38.917Z,0.09
2022-12-15T12:46:14.578Z,0.06
2022-12-15T12:49:02.931Z,0.04
2022-12-15T12:51:36.261Z,0.03
2022-12-15T12:54:30.918Z,0.01
2022-12-15T12:56:57.321Z,0.01
2022-12-15T12:59:37.835Z,0.02
2022-12-15T13:02:24.555Z,0.03
2022-12-15T13:04:57.508Z,0.06
2022-12-15T13:07:31.699Z,0.08
2022-12-15T13:10:18.955Z,0.07
2022-12-15T13:15:58.648Z,0.08
2022-12-15T13:18:27.447Z,0.08
2022-12-15T13:20:55.288Z,0.06
2022-12-15T13:23:21.636Z,0.06
2022-12-15T13:25:57.052Z,0.07
2022-12-15T13:28:42.710Z,0.06
2022-12-15T13:31:21.865Z,0.05
2022-12-15T13:33:52.322Z,0.05
2022-12-15T13:36:36.770Z,0.02
2022-12-15T13:39:12.610Z,-0.01
2022-12-15T13:42:23.733Z,-0.03
2022-12-15T13:44:45.473Z,-0.03
2022-12-15T13:47:31.312Z,0.01
2022-12-15T13:50:03.040Z,0.03
2022-12-15T13:53:16.446Z,0.05
2022-12-15T13:55:27.798Z,0.07
2022-12-15T13:58:01.384Z,0.10
2022-12-15T14:00:27.835Z,0.14
2022-12-15T14:03:11.008Z,0.16
2022-12-15T14:05:39.302Z,0.19
2022-12-15T14:08:16.572Z,0.20
2022-12-15T14:10:52.228Z,0.21
2022-12-15T14:13:28.791Z,0.20
2022-12-15T14:15:59.510Z,0.19
2022-12-15T14:18:29.356Z,0.19
2022-12-15T14:20:56.691Z,0.18
2022-12-15T14:23:29.750Z,0.18
2022-12-15T14:26:08.118Z,0.18
2022-12-15T14:28:40.255Z,0.16
2022-12-15T14:31:17.531Z,0.17
2022-12-15T14:33:46.850Z,0.15
2022-12-15T14:36:19.743Z,0.12
2022-12-15T14:39:07.712Z,0.11
2022-12-15T14:41:40.794Z,0.10
2022-12-15T14:44:36.632Z,0.06
2022-12-15T14:47:07.200Z,0.02
2022-12-15T14:49:45.123Z,-0.01
2022-12-15T14:52:31.764Z,-0.05
2022-12-15T14:55:01.058Z,-0.09
2022-12-15T14:57:27.351Z,-0.12
2022-12-15T14:59:53.762Z,-0.16
2022-12-15T15:02:24.986Z,-0.21
2022-12-15T15:03:05.022Z,0.17
2022-12-15T15:03:12.979Z,0.07
2022-12-15T15:05:27.738Z,-0.26
2022-12-15T15:07:56.640Z,-0.33
2022-12-15T15:10:28.876Z,-0.38
2022-12-15T15:12:55.544Z,-0.42
2022-12-15T15:15:26.439Z,-0.44
2022-12-15T15:17:55.790Z,-0.45
2022-12-15T15:20:26.808Z,-0.48
2022-12-15T15:23:08.280Z,-0.55
2022-12-15T15:25:48.803Z,-0.58
2022-12-15T15:28:18.127Z,-0.62
2022-12-15T15:30:56.638Z,-0.68
2022-12-15T15:33:24.869Z,-0.74
2022-12-15T15:35:54.853Z,-0.80
2022-12-15T15:38:35.721Z,-0.83
2022-12-15T15:41:15.407Z,-0.86
2022-12-15T15:43:42.152Z,-0.87
2022-12-15T15:46:14.969Z,-0.88
2022-12-15T15:48:48.081Z,-0.92
2022-12-15T15:51:14.631Z,-0.93
2022-12-15T15:53:41.167Z,-0.94
2022-12-15T15:56:11.260Z,-0.95
2022-12-15T15:58:38.101Z,-0.95
2022-12-15T16:01:09.528Z,-0.93
2022-12-15T16:03:39.695Z,-0.94
2022-12-15T16:06:14.203Z,-0.95
2022-12-15T16:08:40.674Z,-0.97
2022-12-15T16:11:11.731Z,-0.98
2022-12-15T16:13:38.614Z,-1.00
2022-12-15T16:16:05.645Z,-1.00
2022-12-15T16:18:32.783Z,-1.00
2022-12-15T16:20:59.466Z,-1.04
2022-12-15T16:23:29.776Z,-1.07
2022-12-15T16:25:58.322Z,-1.11
2022-12-15T16:28:30.356Z,-1.15
2022-12-15T16:31:01.624Z,-1.19
2022-12-15T16:33:28.359Z,-1.23
2022-12-15T16:35:54.876Z,-1.26
2022-12-15T16:38:30.767Z,-1.30
2022-12-15T16:41:04.112Z,-1.34
2022-12-15T16:43:36.650Z,-1.36
2022-12-15T16:46:07.038Z,-1.39
2022-12-15T16:48:34.014Z,-1.44
2022-12-15T16:51:00.827Z,-1.49
2022-12-15T16:53:33.086Z,-1.52
2022-12-15T16:56:03.472Z,-1.55
2022-12-15T16:58:31.441Z,-1.57
2022-12-15T17:00:58.476Z,-1.59
2022-12-15T17:03:27.987Z,-1.62
2022-12-15T17:05:57.718Z,-1.65
2022-12-15T17:08:51.451Z,-1.68
2022-12-15T17:11:27.217Z,-1.72
2022-12-15T17:13:56.574Z,-1.70
2022-12-15T17:16:24.615Z,-1.70
2022-12-15T17:18:51.607Z,-1.69
2022-12-15T17:21:20.592Z,-1.68
2022-12-15T17:23:56.681Z,-1.71
2022-12-15T17:26:32.157Z,-1.71
2022-12-15T17:29:01.540Z,-1.70
2022-12-15T17:31:34.690Z,-1.69
2022-12-15T17:34:02.601Z,-1.71
2022-12-15T17:36:29.193Z,-1.68
2022-12-15T17:38:58.180Z,-1.70
2022-12-15T17:41:57.538Z,-1.72
2022-12-15T17:44:33.042Z,-1.72
2022-12-15T17:47:01.833Z,-1.72
2022-12-15T17:49:34.679Z,-1.70
2022-12-15T17:52:05.243Z,-1.68
2022-12-15T17:54:31.615Z,-1.64
2022-12-15T17:56:58.577Z,-1.59
2022-12-15T17:59:24.931Z,-1.54
2022-12-15T18:01:52.103Z,-1.49
2022-12-15T18:04:18.686Z,-1.46
2022-12-15T18:06:45.316Z,-1.42
2022-12-15T18:09:17.407Z,-1.38
2022-12-15T18:11:46.549Z,-1.34
2022-12-15T18:14:15.233Z,-1.31
2022-12-15T18:16:42.229Z,-1.29
2022-12-15T18:19:08.725Z,-1.28
2022-12-15T18:21:35.536Z,-1.25
2022-12-15T18:24:02.361Z,-1.25
2022-12-15T18:26:28.888Z,-1.22
2022-12-15T18:28:55.267Z,-1.22
2022-12-15T18:31:30.296Z,-1.20
2022-12-15T18:34:04.075Z,-1.18
2022-12-15T18:36:31.196Z,-1.17
2022-12-15T18:38:57.568Z,-1.14
2022-12-15T18:41:23.916Z,-1.16
2022-12-15T18:43:56.277Z,-1.16
2022-12-15T18:46:22.675Z,-1.17
2022-12-15T18:48:49.080Z,-1.20
2022-12-15T18:51:21.517Z,-1.21
2022-12-15T18:53:49.014Z,-1.23
2022-12-15T18:56:18.115Z,-1.28
2022-12-15T18:58:44.822Z,-1.30
2022-12-15T19:01:11.244Z,-1.33
2022-12-15T19:03:41.066Z,-1.32
2022-12-15T19:06:25.978Z,-1.30
2022-12-15T19:08:52.919Z,-1.30
2022-12-15T19:11:30.806Z,-1.32
2022-12-15T19:13:59.061Z,-1.32
2022-12-15T19:16:25.551Z,-1.34
2022-12-15T19:19:16.963Z,-1.35
2022-12-15T19:22:02.371Z,-1.35
2022-12-15T19:24:49.745Z,-1.36
2022-12-15T19:27:20.822Z,-1.36
2022-12-15T19:29:50.155Z,-1.38
2022-12-15T19:32:16.730Z,-1.36
2022-12-15T19:34:44.203Z,-1.35
2022-12-15T19:37:25.091Z,-1.31
2022-12-15T19:39:53.014Z,-1.29
2022-12-15T19:42:29.827Z,-1.26
2022-12-15T19:44:56.205Z,-1.26
2022-12-15T19:47:22.702Z,-1.26
2022-12-15T19:49:49.097Z,-1.28
2022-12-15T19:52:19.665Z,-1.30
2022-12-15T19:54:49.754Z,-1.31
2022-12-15T19:57:18.390Z,-1.33
2022-12-15T19:59:45.019Z,-1.36
2022-12-15T20:02:17.770Z,-1.40
2022-12-15T20:04:45.271Z,-1.41
2022-12-15T20:07:18.692Z,-1.44
2022-12-15T20:09:45.178Z,-1.43
2022-12-15T20:12:19.055Z,-1.44
2022-12-15T20:14:46.079Z,-1.43
2022-12-15T20:17:12.708Z,-1.40
2022-12-15T20:19:39.084Z,-1.39
2022-12-15T20:22:06.586Z,-1.37
2022-12-15T20:24:33.387Z,-1.36
2022-12-15T20:26:59.814Z,-1.35
2022-12-15T20:29:29.331Z,-1.32
2022-12-15T20:31:57.978Z,-1.31
2022-12-15T20:34:25.233Z,-1.31
2022-12-15T20:36:51.811Z,-1.29
2022-12-15T20:39:28.354Z,-1.27
2022-12-15T20:41:56.235Z,-1.25
2022-12-15T20:44:24.049Z,-1.25
2022-12-15T20:46:50.779Z,-1.22
2022-12-15T20:49:20.597Z,-1.21
2022-12-15T20:51:48.613Z,-1.21
2022-12-15T20:54:18.032Z,-1.21
2022-12-15T20:56:45.319Z,-1.19
2022-12-15T20:59:12.196Z,-1.20
2022-12-15T21:01:39.458Z,-1.19
2022-12-15T21:04:27.884Z,-1.17
2022-12-15T21:06:55.832Z,-1.16
2022-12-15T21:09:22.889Z,-1.16
2022-12-15T21:11:51.744Z,-1.16
2022-12-15T21:14:22.346Z,-1.17
2022-12-15T21:16:49.388Z,-1.16
2022-12-15T21:19:20.737Z,-1.17
2022-12-15T21:21:51.730Z,-1.18
2022-12-15T21:24:24.674Z,-1.19
2022-12-15T21:26:52.148Z,-1.17
2022-12-15T21:29:21.965Z,-1.18
2022-12-15T21:31:48.741Z,-1.18
2022-12-15T21:34:15.311Z,-1.18
2022-12-15T21:36:43.993Z,-1.19
2022-12-15T21:39:15.807Z,-1.20
2022-12-15T21:41:43.134Z,-1.22
2022-12-15T21:44:13.950Z,-1.22
2022-12-15T21:46:41.204Z,-1.24
2022-12-15T21:49:15.363Z,-1.24
2022-12-15T21:51:44.318Z,-1.23
2022-12-15T21:54:18.277Z,-1.24
2022-12-15T21:56:46.603Z,-1.24
2022-12-15T21:59:15.219Z,-1.25
2022-12-15T22:01:42.368Z,-1.24
2022-12-15T22:04:21.262Z,-1.23
2022-12-15T22:06:50.823Z,-1.22
2022-12-15T22:09:18.660Z,-1.20
2022-12-15T22:11:48.364Z,-1.19
2022-12-15T22:14:29.484Z,-1.19
2022-12-15T22:16:57.120Z,-1.19
2022-12-15T22:19:23.902Z,-1.16
2022-12-15T22:21:50.599Z,-1.17
2022-12-15T22:24:19.021Z,-1.16
2022-12-15T22:26:47.096Z,-1.16
2022-12-15T22:29:17.841Z,-1.18
2022-12-15T22:31:44.400Z,-1.17
2022-12-15T22:34:16.068Z,-1.15
2022-12-15T22:36:43.331Z,-1.15
2022-12-15T22:39:11.150Z,-1.15
2022-12-15T22:41:40.594Z,-1.14
2022-12-15T22:44:16.569Z,-1.12
2022-12-15T22:46:43.143Z,-1.10
2022-12-15T22:49:14.816Z,-1.09
2022-12-15T22:51:41.438Z,-1.09
2022-12-15T22:54:19.935Z,-1.09
2022-12-15T22:56:49.570Z,-1.07
2022-12-15T22:59:34.308Z,-1.08
2022-12-15T23:02:04.746Z,-1.09
2022-12-15T23:04:31.942Z,-1.09
2022-12-15T23:07:02.241Z,-1.10
2022-12-15T23:09:28.963Z,-1.13
2022-12-15T23:11:55.740Z,-1.13
2022-12-15T23:14:42.278Z,-1.18
2022-12-15T23:17:09.001Z,-1.22
2022-12-15T23:19:35.524Z,-1.28
2022-12-15T23:22:01.969Z,-1.32
2022-12-15T23:24:28.416Z,-1.36
2022-12-15T23:26:54.832Z,-1.39
2022-12-15T23:29:21.450Z,-1.41
2022-12-15T23:31:47.899Z,-1.43
2022-12-15T23:34:14.318Z,-1.47
2022-12-15T23:36:40.694Z,-1.51
2022-12-15T23:39:07.105Z,-1.53
2022-12-15T23:41:34.968Z,-1.58
2022-12-15T23:44:01.345Z,-1.61
2022-12-15T23:46:27.802Z,-1.64
2022-12-15T23:48:55.080Z,-1.68
2022-12-15T23:51:21.563Z,-1.71
2022-12-15T23:53:48.482Z,-1.74
2022-12-15T23:56:20.953Z,-1.78
2022-12-15T23:58:49.048Z,-1.81
